Time;durP1;ratioP1;P1;durP2;ratioP2;P2;SDS_P1;SDS_P2;PMS_P1;PMS_P2;Temp;Humidity;BMP_temperature;BMP_pressure;BME280_temperature;BME280_humidity;BME280_pressure;Samples;Min_cycle;Max_cycle;Signal;HPM_P1;HPM_P2
2024/03/10 00:01:25;;;;;;;27.98;17.00;;;6.70;99.90;;;;;;6211123;23;20016;-87
2024/03/10 00:03:51;;;;;;;28.73;17.90;;;6.60;99.90;;;;;;6208157;23;20466;-88
2024/03/10 00:06:17;;;;;;;27.70;16.38;;;6.60;99.90;;;;;;6184777;23;20027;-88
2024/03/10 00:08:43;;;;;;;25.73;17.27;;;6.60;99.90;;;;;;6180914;23;20020;-92
2024/03/10 00:11:12;;;;;;;26.42;16.80;;;6.60;99.90;;;;;;6185402;23;20019;-87
2024/03/10 00:13:37;;;;;;;33.95;17.77;;;6.50;99.90;;;;;;6210602;22;20003;-89
2024/03/10 00:16:03;;;;;;;27.92;16.92;;;6.50;99.90;;;;;;6216774;22;20333;-88
2024/03/10 00:18:29;;;;;;;27.95;17.15;;;6.40;99.90;;;;;;6240623;22;20023;-90
2024/03/10 00:20:55;;;;;;;28.02;17.10;;;6.40;99.90;;;;;;6215571;22;20575;-86
2024/03/10 00:23:21;;;;;;;27.63;15.88;;;6.40;99.90;;;;;;6214555;22;20011;-79
2024/03/10 00:25:46;;;;;;;28.25;15.38;;;6.40;99.90;;;;;;6237995;22;20023;-79
2024/03/10 00:28:12;;;;;;;28.48;15.60;;;6.40;99.90;;;;;;6212499;22;20011;-79
2024/03/10 00:30:38;;;;;;;23.88;16.00;;;6.30;99.90;;;;;;6214896;22;20453;-90
2024/03/10 00:33:04;;;;;;;26.70;15.73;;;6.40;99.90;;;;;;6217386;22;20014;-88
2024/03/10 00:35:32;;;;;;;30.77;17.45;;;6.40;99.90;;;;;;6215809;22;20472;-88
2024/03/10 00:37:57;;;;;;;25.02;16.83;;;6.30;99.90;;;;;;6187089;23;20047;-85
2024/03/10 00:40:23;;;;;;;23.80;15.63;;;6.40;99.90;;;;;;6190999;23;20450;-91
2024/03/10 00:42:49;;;;;;;38.28;18.65;;;6.50;99.90;;;;;;6238755;22;20496;-92
2024/03/10 00:45:15;;;;;;;30.40;17.42;;;6.50;99.90;;;;;;6241049;22;20066;-90
2024/03/10 00:47:40;;;;;;;33.08;17.27;;;6.50;99.90;;;;;;6214955;22;20020;-79
2024/03/10 00:50:08;;;;;;;30.70;17.20;;;6.40;99.90;;;;;;6213769;22;20019;-79
2024/03/10 00:52:35;;;;;;;26.45;17.08;;;6.40;99.90;;;;;;6239622;22;20027;-79
2024/03/10 00:55:00;;;;;;;25.73;16.83;;;6.50;99.90;;;;;;6183358;23;20008;-79
2024/03/10 00:57:26;;;;;;;23.15;15.48;;;6.40;99.90;;;;;;6206171;23;20014;-80
2024/03/10 00:59:52;;;;;;;27.80;16.83;;;6.40;99.90;;;;;;6198981;22;20048;-79
2024/03/10 01:02:17;;;;;;;30.13;16.77;;;6.40;99.90;;;;;;6238854;22;20409;-79
2024/03/10 01:04:44;;;;;;;28.95;17.08;;;6.30;99.90;;;;;;6213897;22;20012;-90
2024/03/10 01:07:10;;;;;;;26.48;17.27;;;6.40;99.90;;;;;;6214123;22;19999;-88
2024/03/10 01:09:35;;;;;;;27.13;15.95;;;6.30;99.90;;;;;;6216842;22;20597;-85
2024/03/10 01:12:01;;;;;;;29.70;16.95;;;6.30;99.90;;;;;;6241426;22;20007;-87
2024/03/10 01:14:26;;;;;;;29.42;16.15;;;6.40;99.90;;;;;;6209033;23;20059;-90
2024/03/10 01:16:52;;;;;;;25.75;16.27;;;6.40;99.90;;;;;;6189683;23;20012;-88
2024/03/10 01:19:18;;;;;;;24.45;16.15;;;6.40;99.90;;;;;;6211639;22;20086;-90
2024/03/10 01:21:45;;;;;;;25.60;16.38;;;6.40;99.90;;;;;;6213526;22;20452;-86
2024/03/10 01:24:12;;;;;;;21.17;12.57;;;6.40;99.90;;;;;;6186322;23;20078;-89
2024/03/10 01:26:38;;;;;;;26.85;16.00;;;6.50;99.90;;;;;;6210642;23;20095;-88
2024/03/10 01:29:04;;;;;;;21.30;12.85;;;6.60;99.90;;;;;;6209279;23;20044;-88
2024/03/10 01:31:29;;;;;;;30.75;17.13;;;6.70;99.90;;;;;;6183976;23;20016;-89
2024/03/10 01:33:55;;;;;;;27.17;16.83;;;6.70;99.90;;;;;;6188974;23;20008;-88
2024/03/10 01:36:21;;;;;;;25.65;15.20;;;6.60;99.90;;;;;;6210450;22;20519;-90
2024/03/10 01:38:46;;;;;;;21.83;13.95;;;6.50;99.90;;;;;;6214105;22;20012;-91
2024/03/10 01:41:12;;;;;;;25.33;15.95;;;6.50;99.90;;;;;;6214020;22;20118;-90
2024/03/10 01:43:40;;;;;;;29.42;15.90;;;6.50;99.90;;;;;;6240663;22;20343;-80
2024/03/10 01:46:10;;;;;;;26.73;16.15;;;6.40;99.90;;;;;;6172178;23;20090;-79
2024/03/10 01:48:37;;;;;;;26.05;16.48;;;6.30;99.90;;;;;;6213197;22;20024;-80
2024/03/10 01:51:15;;;;;;;25.15;16.98;;;6.30;99.90;;;;;;6186402;22;20062;-80
2024/03/10 01:53:41;;;;;;;27.27;16.55;;;6.30;99.90;;;;;;6188033;22;20023;-79
2024/03/10 01:56:07;;;;;;;27.23;16.33;;;6.30;99.90;;;;;;6187823;22;20008;-80
2024/03/10 01:58:33;;;;;;;25.25;15.10;;;6.20;99.90;;;;;;6213549;22;20015;-80
2024/03/10 02:01:01;;;;;;;25.95;16.30;;;6.10;99.90;;;;;;6212970;22;20028;-79
2024/03/10 02:03:28;;;;;;;25.58;15.00;;;6.10;99.90;;;;;;6188753;22;20873;-79
2024/03/10 02:05:53;;;;;;;28.42;16.45;;;6.10;99.90;;;;;;6185458;22;20022;-80
2024/03/10 02:08:19;;;;;;;27.20;17.00;;;6.10;99.90;;;;;;6185933;22;20086;-79
2024/03/10 02:10:46;;;;;;;25.08;15.60;;;6.10;99.90;;;;;;6187719;22;20082;-79
2024/03/10 02:13:12;;;;;;;24.73;16.55;;;6.10;99.90;;;;;;6213039;22;20099;-80
2024/03/10 02:15:38;;;;;;;31.90;16.00;;;6.00;99.90;;;;;;6186356;22;20122;-79
2024/03/10 02:18:04;;;;;;;23.48;15.55;;;6.00;99.90;;;;;;6186458;22;20012;-79
2024/03/10 02:20:32;;;;;;;26.38;17.00;;;6.00;99.90;;;;;;6184187;22;20094;-79
2024/03/10 02:22:58;;;;;;;26.67;15.90;;;6.00;99.90;;;;;;6212633;22;20022;-79
2024/03/10 02:25:24;;;;;;;24.30;14.75;;;5.90;99.90;;;;;;6186631;22;20564;-79
2024/03/10 02:27:50;;;;;;;25.42;16.88;;;5.90;99.90;;;;;;6186884;22;20633;-79
2024/03/10 02:30:19;;;;;;;23.75;15.68;;;5.90;99.90;;;;;;6211698;22;20584;-79
2024/03/10 02:49:16;;;;;;;27.25;16.70;;;6.00;99.90;;;;;;6191183;23;20020;-79
2024/03/10 02:51:42;;;;;;;27.40;17.20;;;6.10;99.90;;;;;;6184108;23;20024;-79
2024/03/10 02:54:07;;;;;;;27.45;16.90;;;6.10;99.90;;;;;;6210425;23;20091;-86
2024/03/10 02:56:33;;;;;;;26.13;16.50;;;6.10;99.90;;;;;;6183752;23;20060;-87
2024/03/10 02:58:59;;;;;;;26.17;16.15;;;6.10;99.90;;;;;;6189381;23;20043;-85
2024/03/10 03:01:24;;;;;;;25.02;15.77;;;6.20;99.90;;;;;;6191305;23;20450;-88
2024/03/10 03:03:51;;;;;;;27.17;15.80;;;6.30;99.90;;;;;;6184680;23;20020;-87
2024/03/10 03:06:17;;;;;;;26.23;15.77;;;6.20;99.90;;;;;;6178720;23;20063;-88
2024/03/10 03:08:43;;;;;;;28.73;17.00;;;6.10;99.90;;;;;;6183036;23;20047;-88
2024/03/10 03:11:09;;;;;;;27.50;16.95;;;6.20;99.90;;;;;;6186342;23;20814;-88
2024/03/10 03:13:35;;;;;;;27.67;15.63;;;6.30;99.90;;;;;;6209359;22;20011;-86
2024/03/10 03:16:04;;;;;;;25.10;15.93;;;6.10;99.90;;;;;;6185109;23;20450;-86
2024/03/10 03:18:30;;;;;;;27.77;15.70;;;6.00;99.90;;;;;;6184689;23;20438;-86
2024/03/10 03:20:56;;;;;;;27.77;16.42;;;6.00;99.90;;;;;;6213067;23;20024;-88
2024/03/10 03:23:22;;;;;;;25.05;16.63;;;6.00;99.90;;;;;;6210133;22;20031;-86
2024/03/10 03:25:50;;;;;;;21.75;12.75;;;6.10;99.90;;;;;;6215029;22;20018;-85
2024/03/10 03:28:17;;;;;;;24.58;16.25;;;6.10;99.90;;;;;;6208616;23;20019;-87
2024/03/10 03:30:43;;;;;;;28.15;17.13;;;6.00;99.90;;;;;;6210822;23;20068;-87
2024/03/10 03:33:09;;;;;;;27.00;16.25;;;5.90;99.90;;;;;;6203906;23;20020;-87
2024/03/10 03:35:37;;;;;;;27.27;16.67;;;5.70;99.90;;;;;;6201686;23;20487;-87
2024/03/10 03:38:03;;;;;;;30.30;18.10;;;5.60;99.90;;;;;;6209345;23;20031;-86
2024/03/10 03:40:29;;;;;;;23.75;15.93;;;5.60;99.90;;;;;;6207541;23;20020;-87
2024/03/10 03:42:55;;;;;;;28.25;16.35;;;5.50;99.90;;;;;;6183957;23;20012;-87
2024/03/10 03:45:22;;;;;;;24.92;16.00;;;5.60;99.90;;;;;;6183060;23;20341;-87
2024/03/10 03:47:47;;;;;;;25.48;16.08;;;5.60;99.90;;;;;;6182876;23;20112;-87
2024/03/10 03:50:13;;;;;;;24.95;16.13;;;5.60;99.90;;;;;;6205388;23;20040;-87
2024/03/10 03:52:39;;;;;;;25.77;15.65;;;5.50;99.90;;;;;;6187853;23;20028;-87
2024/03/10 03:55:06;;;;;;;27.48;15.93;;;5.50;99.90;;;;;;6233207;22;20441;-87
2024/03/10 03:57:31;;;;;;;25.58;15.98;;;5.50;99.90;;;;;;6185047;23;20016;-83
2024/03/10 03:59:57;;;;;;;28.40;17.55;;;5.50;99.90;;;;;;6187582;23;20023;-87
2024/03/10 04:02:25;;;;;;;28.85;16.58;;;5.40;99.90;;;;;;6210722;22;20018;-87
2024/03/10 04:04:51;;;;;;;23.35;15.32;;;5.40;99.90;;;;;;6237861;22;20012;-79
2024/03/10 04:07:17;;;;;;;26.67;16.55;;;5.40;99.90;;;;;;6237164;22;20070;-79
2024/03/10 04:09:43;;;;;;;26.73;15.98;;;5.50;99.90;;;;;;6214037;22;20061;-79
2024/03/10 04:12:08;;;;;;;28.52;16.83;;;5.50;99.90;;;;;;6238934;22;20008;-79
2024/03/10 04:14:34;;;;;;;26.17;16.50;;;5.40;99.90;;;;;;6237602;22;20027;-79
2024/03/10 04:16:59;;;;;;;27.70;17.48;;;5.40;99.90;;;;;;6238923;22;20065;-79
2024/03/10 04:19:25;;;;;;;27.20;16.70;;;5.30;99.90;;;;;;6212562;22;20508;-79
2024/03/10 04:21:50;;;;;;;31.00;16.98;;;5.30;99.90;;;;;;6213526;22;20091;-79
2024/03/10 04:24:16;;;;;;;30.05;18.63;;;5.20;99.90;;;;;;6211118;22;20004;-79
2024/03/10 04:26:42;;;;;;;27.67;15.48;;;5.20;99.90;;;;;;6213590;22;20344;-79
2024/03/10 04:29:14;;;;;;;25.83;16.38;;;5.20;99.90;;;;;;6212015;22;20011;-79
2024/03/10 04:31:39;;;;;;;31.63;16.80;;;5.20;99.90;;;;;;6184010;23;20020;-79
2024/03/10 04:34:05;;;;;;;26.35;16.58;;;5.00;99.90;;;;;;6207549;23;20012;-79
2024/03/10 04:36:31;;;;;;;27.75;16.90;;;4.90;99.90;;;;;;6179575;23;20492;-79
2024/03/10 04:38:57;;;;;;;28.85;17.75;;;4.90;99.90;;;;;;6207005;23;20075;-79
2024/03/10 04:41:23;;;;;;;27.08;16.50;;;4.70;99.90;;;;;;6206857;23;20016;-79
2024/03/10 04:43:48;;;;;;;26.42;15.88;;;4.80;99.90;;;;;;6203571;23;20023;-79
2024/03/10 04:46:14;;;;;;;27.10;16.55;;;4.80;99.90;;;;;;6207670;23;20036;-79
2024/03/10 04:48:40;;;;;;;31.52;17.40;;;4.80;99.90;;;;;;6207956;23;20381;-79
2024/03/10 04:51:05;;;;;;;26.50;15.88;;;4.80;99.90;;;;;;6181260;23;20023;-79
2024/03/10 04:53:31;;;;;;;27.58;16.65;;;4.70;99.90;;;;;;6181564;23;20342;-79
2024/03/10 04:55:57;;;;;;;25.45;16.52;;;4.60;99.90;;;;;;6204334;23;20027;-78
2024/03/10 04:58:22;;;;;;;28.35;16.60;;;4.60;99.90;;;;;;6182462;23;20070;-79
2024/03/10 05:00:48;;;;;;;30.52;16.48;;;4.60;99.90;;;;;;6175676;23;20385;-79
2024/03/10 05:03:15;;;;;;;28.73;16.48;;;4.60;99.90;;;;;;6184170;23;20010;-79
2024/03/10 05:05:40;;;;;;;27.13;16.45;;;4.60;99.90;;;;;;6213859;23;20480;-79
2024/03/10 05:08:08;;;;;;;28.25;17.92;;;4.60;99.90;;;;;;6182265;23;20016;-79
2024/03/10 05:10:34;;;;;;;24.10;14.88;;;4.60;99.90;;;;;;6187524;23;20020;-79
2024/03/10 05:12:59;;;;;;;25.52;16.55;;;4.60;99.90;;;;;;6182274;23;20454;-79
2024/03/10 05:15:26;;;;;;;30.63;16.33;;;4.50;99.90;;;;;;6206472;23;20024;-84
2024/03/10 05:17:52;;;;;;;31.63;18.63;;;4.40;99.90;;;;;;6200660;23;20543;-82
2024/03/10 05:20:18;;;;;;;28.67;17.85;;;4.30;99.90;;;;;;6209360;23;20023;-84
2024/03/10 05:22:44;;;;;;;26.55;16.25;;;4.20;99.90;;;;;;6190236;23;20484;-83
2024/03/10 05:25:11;;;;;;;28.60;18.10;;;4.20;99.90;;;;;;6189058;23;20117;-83
2024/03/10 05:27:37;;;;;;;26.02;16.10;;;4.20;99.90;;;;;;6181589;23;20453;-85
2024/03/10 05:30:03;;;;;;;25.27;16.25;;;4.20;99.90;;;;;;6207052;23;20020;-84
2024/03/10 05:32:29;;;;;;;28.67;17.67;;;4.20;99.90;;;;;;6180546;23;20381;-85
2024/03/10 05:34:56;;;;;;;28.25;17.38;;;4.20;99.90;;;;;;6181411;23;20004;-83
2024/03/10 05:37:22;;;;;;;27.63;16.45;;;4.20;99.90;;;;;;6183464;23;20000;-81
2024/03/10 05:39:48;;;;;;;27.65;17.58;;;4.20;99.90;;;;;;6175353;23;20016;-83
2024/03/10 05:42:14;;;;;;;25.90;16.25;;;4.00;99.90;;;;;;6208675;23;20403;-84
2024/03/10 05:44:40;;;;;;;28.58;16.45;;;4.20;99.90;;;;;;6180825;23;20040;-83
2024/03/10 05:47:06;;;;;;;27.63;17.92;;;4.20;99.90;;;;;;6212615;23;20401;-82
2024/03/10 05:49:32;;;;;;;27.58;17.20;;;4.20;99.90;;;;;;6202226;23;20091;-84
2024/03/10 05:51:57;;;;;;;25.23;17.00;;;4.30;99.90;;;;;;6207217;23;20059;-83
2024/03/10 05:54:23;;;;;;;30.30;17.67;;;4.30;99.90;;;;;;6177153;23;20023;-83
2024/03/10 05:56:49;;;;;;;31.98;16.58;;;4.20;99.90;;;;;;6182555;23;20012;-83
2024/03/10 05:59:14;;;;;;;32.60;16.60;;;4.30;99.90;;;;;;6178185;23;20041;-83
2024/03/10 06:01:40;;;;;;;27.17;16.23;;;4.30;99.90;;;;;;6195335;23;20024;-82
2024/03/10 06:04:06;;;;;;;30.98;17.88;;;4.40;99.90;;;;;;6230855;22;20080;-83
2024/03/10 06:06:32;;;;;;;24.48;15.00;;;4.50;99.90;;;;;;6212619;22;20038;-82
2024/03/10 06:08:57;;;;;;;30.15;16.98;;;4.60;99.90;;;;;;6237607;22;20441;-83
2024/03/10 06:11:23;;;;;;;27.60;17.73;;;4.60;99.90;;;;;;6242102;22;20342;-79
2024/03/10 06:13:49;;;;;;;27.50;16.80;;;4.50;99.90;;;;;;6216945;22;20035;-83
2024/03/10 06:16:15;;;;;;;23.02;14.20;;;4.40;99.90;;;;;;6217259;22;20007;-82
2024/03/10 06:26:54;;;;;;;28.70;16.60;;;4.30;99.90;;;;;;6246470;22;20346;-78
2024/03/10 06:29:23;;;;;;;28.65;17.33;;;4.20;99.90;;;;;;6241983;22;20012;-78
2024/03/10 06:31:49;;;;;;;28.30;16.65;;;4.20;99.90;;;;;;6191652;23;20353;-78
2024/03/10 06:34:15;;;;;;;25.45;15.80;;;4.20;99.90;;;;;;6187703;23;20004;-78
2024/03/10 06:36:41;;;;;;;27.63;16.90;;;4.20;99.90;;;;;;6210791;22;20004;-78
2024/03/10 06:39:08;;;;;;;26.02;16.42;;;4.20;99.90;;;;;;6215861;22;20014;-78
2024/03/10 06:41:35;;;;;;;25.58;15.77;;;4.20;99.90;;;;;;6217062;22;20026;-78
2024/03/10 06:44:01;;;;;;;26.70;16.52;;;4.20;99.90;;;;;;6216874;22;20011;-78
2024/03/10 06:46:27;;;;;;;29.30;17.77;;;4.20;99.90;;;;;;6241301;22;20030;-78
2024/03/10 06:48:53;;;;;;;25.30;16.67;;;4.30;99.90;;;;;;6242126;22;20012;-78
2024/03/10 06:51:19;;;;;;;31.48;17.00;;;4.30;99.90;;;;;;6216222;22;20012;-78
2024/03/10 06:53:45;;;;;;;27.05;15.95;;;4.40;99.90;;;;;;6216808;22;20012;-78
2024/03/10 06:56:13;;;;;;;31.27;18.20;;;4.40;99.90;;;;;;6186351;23;20403;-78
2024/03/10 06:58:43;;;;;;;27.50;18.08;;;4.40;99.90;;;;;;6186702;23;20027;-78
2024/03/10 07:01:10;;;;;;;27.45;16.45;;;4.40;99.90;;;;;;6216634;23;20441;-79
2024/03/10 07:03:36;;;;;;;26.15;16.38;;;4.40;99.90;;;;;;6240920;22;20019;-78
2024/03/10 07:06:04;;;;;;;27.83;16.65;;;4.60;99.90;;;;;;6186867;23;20649;-78
2024/03/10 07:08:30;;;;;;;29.75;16.27;;;4.70;99.90;;;;;;6215962;23;20599;-79
2024/03/10 07:10:56;;;;;;;25.40;15.95;;;4.80;99.90;;;;;;6212094;22;20012;-79
2024/03/10 07:13:21;;;;;;;26.08;15.57;;;4.90;99.90;;;;;;6216790;22;20072;-79
2024/03/10 07:15:48;;;;;;;27.67;17.00;;;4.90;99.90;;;;;;6191073;23;20020;-79
2024/03/10 07:18:16;;;;;;;26.67;17.08;;;5.10;99.90;;;;;;6212215;23;20012;-79
2024/03/10 07:20:42;;;;;;;24.80;15.27;;;5.10;99.90;;;;;;6212414;23;20023;-78
2024/03/10 07:23:07;;;;;;;32.00;16.80;;;5.10;99.90;;;;;;6192927;23;20016;-78
2024/03/10 07:25:33;;;;;;;24.38;15.95;;;5.10;99.90;;;;;;6214141;22;20008;-79
2024/03/10 07:27:59;;;;;;;25.92;19.42;;;5.10;99.90;;;;;;6241744;22;20011;-79
2024/03/10 07:30:24;;;;;;;29.52;18.33;;;5.20;99.90;;;;;;6242214;22;20075;-79
2024/03/10 07:32:50;;;;;;;27.35;15.93;;;5.20;99.90;;;;;;6216668;22;20086;-79
2024/03/10 07:35:16;;;;;;;28.95;17.48;;;5.30;99.90;;;;;;6216599;22;20008;-78
2024/03/10 07:37:42;;;;;;;25.30;15.75;;;5.30;99.90;;;;;;6216680;22;20022;-79
2024/03/10 07:40:16;;;;;;;29.70;16.85;;;5.40;99.90;;;;;;6216285;22;20047;-78
2024/03/10 07:42:43;;;;;;;26.33;15.65;;;5.50;99.90;;;;;;6218041;22;20137;-79
2024/03/10 07:45:12;;;;;;;25.17;15.45;;;5.50;99.90;;;;;;6216206;22;20073;-79
2024/03/10 07:47:44;;;;;;;28.05;18.05;;;5.60;99.90;;;;;;6192766;22;20020;-78
2024/03/10 07:50:11;;;;;;;23.20;14.50;;;5.60;99.90;;;;;;6193176;22;20452;-79
2024/03/10 07:52:38;;;;;;;28.17;17.48;;;5.70;99.90;;;;;;6215669;22;20026;-79
2024/03/10 07:55:04;;;;;;;25.25;14.95;;;5.80;99.90;;;;;;6215722;22;20345;-78
2024/03/10 07:57:33;;;;;;;26.90;16.15;;;5.90;99.90;;;;;;6190879;22;20461;-79
2024/03/10 07:59:59;;;;;;;26.77;16.08;;;6.00;99.90;;;;;;6190772;22;20073;-78
2024/03/10 08:02:25;;;;;;;27.02;16.33;;;6.00;99.90;;;;;;6216694;22;20475;-78
2024/03/10 08:04:51;;;;;;;25.60;15.82;;;6.10;99.90;;;;;;6190383;22;20004;-79
2024/03/10 08:07:17;;;;;;;25.33;15.30;;;6.20;99.90;;;;;;6190282;22;20012;-79
2024/03/10 08:09:43;;;;;;;27.25;15.95;;;6.30;99.90;;;;;;6216234;22;20014;-84
2024/03/10 08:12:08;;;;;;;24.23;15.63;;;6.40;99.90;;;;;;6189969;22;20441;-85
2024/03/10 08:14:36;;;;;;;23.80;14.40;;;6.40;99.90;;;;;;6189808;22;20149;-85
2024/03/10 08:17:02;;;;;;;25.23;15.07;;;6.50;99.90;;;;;;6241463;22;20342;-85
2024/03/10 08:19:27;;;;;;;24.65;15.75;;;6.60;99.90;;;;;;6215476;22;20007;-86
2024/03/10 08:21:53;;;;;;;24.00;15.70;;;6.60;99.90;;;;;;6191135;22;20012;-85
2024/03/10 08:24:18;;;;;;;28.10;16.65;;;6.70;99.90;;;;;;6240944;22;20014;-82
2024/03/10 08:26:44;;;;;;;28.42;15.18;;;6.80;99.90;;;;;;6216770;22;20726;-84
2024/03/10 08:29:10;;;;;;;25.77;17.80;;;6.90;99.90;;;;;;6216465;22;20038;-87
2024/03/10 08:31:36;;;;;;;26.92;16.33;;;7.00;99.90;;;;;;6192119;22;20039;-87
2024/03/10 08:34:02;;;;;;;25.60;15.57;;;7.10;99.90;;;;;;6190553;22;20012;-83
2024/03/10 08:36:27;;;;;;;24.00;15.70;;;7.10;99.90;;;;;;6191394;22;20007;-87
2024/03/10 08:38:54;;;;;;;26.27;15.95;;;7.20;99.90;;;;;;6241696;22;20468;-82
2024/03/10 08:41:20;;;;;;;24.98;15.73;;;7.30;99.90;;;;;;6192422;22;20423;-88
2024/03/10 08:43:45;;;;;;;26.00;17.17;;;7.40;99.90;;;;;;6217812;22;20020;-89
2024/03/10 08:46:11;;;;;;;24.20;16.67;;;7.50;99.90;;;;;;6215352;22;20012;-77
2024/03/10 08:48:37;;;;;;;21.05;15.32;;;7.70;99.90;;;;;;6188094;22;20023;-77
2024/03/10 08:51:05;;;;;;;27.75;17.92;;;7.90;99.90;;;;;;6209009;22;20007;-77
2024/03/10 08:53:30;;;;;;;22.42;14.98;;;8.00;99.90;;;;;;6191426;22;20122;-77
2024/03/10 08:55:56;;;;;;;27.50;16.27;;;8.10;99.90;;;;;;6214705;22;20390;-78
2024/03/10 08:58:21;;;;;;;25.88;15.23;;;8.20;99.90;;;;;;6189393;22;20016;-78
2024/03/10 09:00:47;;;;;;;22.92;15.90;;;8.30;99.90;;;;;;6190468;22;20015;-77
2024/03/10 09:03:13;;;;;;;28.63;16.00;;;8.40;99.90;;;;;;6190618;22;20012;-77
2024/03/10 09:05:39;;;;;;;25.83;15.18;;;8.50;99.90;;;;;;6214354;22;20019;-78
2024/03/10 09:08:04;;;;;;;32.42;19.85;;;8.50;99.90;;;;;;6240765;22;20019;-78
2024/03/10 09:10:30;;;;;;;32.63;20.10;;;8.60;99.90;;;;;;6185233;22;20438;-78
2024/03/10 09:12:55;;;;;;;42.83;22.58;;;8.60;99.90;;;;;;6190251;22;20380;-77
2024/03/10 09:15:21;;;;;;;42.47;24.88;;;8.70;99.90;;;;;;6215069;22;20511;-77
2024/03/10 09:17:47;;;;;;;44.15;27.42;;;8.70;99.90;;;;;;6216096;22;20066;-78
2024/03/10 09:20:13;;;;;;;48.53;29.45;;;8.80;99.90;;;;;;6215828;22;20365;-77
2024/03/10 09:22:41;;;;;;;56.03;30.98;;;8.90;99.90;;;;;;6215439;22;20042;-77
2024/03/10 09:25:12;;;;;;;50.35;32.60;;;9.00;99.90;;;;;;6215222;22;20018;-78
2024/03/10 09:27:40;;;;;;;52.40;33.72;;;9.10;99.90;;;;;;6214137;22;20350;-77
2024/03/10 09:30:07;;;;;;;55.42;35.47;;;9.20;99.90;;;;;;6267383;22;20083;-77
2024/03/10 09:32:33;;;;;;;53.47;31.75;;;9.30;99.90;;;;;;6215607;22;20018;-78
2024/03/10 09:34:59;;;;;;;58.20;34.80;;;9.40;99.90;;;;;;6215409;22;20012;-77
2024/03/10 09:37:28;;;;;;;58.92;34.83;;;9.50;99.90;;;;;;6189400;22;20469;-77
2024/03/10 09:39:54;;;;;;;56.20;34.65;;;9.60;99.90;;;;;;6215695;22;20461;-77
2024/03/10 09:42:20;;;;;;;50.67;31.65;;;9.70;99.90;;;;;;6215382;22;20011;-77
2024/03/10 09:44:46;;;;;;;46.72;30.10;;;9.80;99.90;;;;;;6189440;22;20038;-78
2024/03/10 09:47:14;;;;;;;39.88;25.48;;;9.80;99.90;;;;;;6190561;22;20011;-77
2024/03/10 09:49:40;;;;;;;36.63;22.90;;;9.90;99.90;;;;;;6176186;22;20007;-77
2024/03/10 09:52:06;;;;;;;32.75;20.15;;;10.00;99.90;;;;;;6215605;22;20011;-78
2024/03/10 09:54:35;;;;;;;25.00;18.38;;;10.10;99.90;;;;;;6189753;22;20011;-78
2024/03/10 09:57:02;;;;;;;28.60;17.88;;;10.20;99.90;;;;;;6191889;22;19999;-89
2024/03/10 09:59:44;;;;;;;26.75;17.65;;;10.20;99.90;;;;;;6242510;22;20012;-86
2024/03/10 10:02:26;;;;;;;25.50;17.40;;;10.40;99.90;;;;;;6219078;22;20023;-86
2024/03/10 10:04:58;;;;;;;23.98;16.27;;;10.50;99.90;;;;;;6166018;23;20000;-86
2024/03/10 10:07:37;;;;;;;25.38;16.55;;;10.60;99.90;;;;;;6155190;23;20008;-86
2024/03/10 10:10:04;;;;;;;28.45;15.95;;;10.80;99.90;;;;;;6214889;22;20022;-87
2024/03/10 10:12:30;;;;;;;23.45;15.32;;;10.80;99.90;;;;;;6189228;22;20012;-84
2024/03/10 10:14:56;;;;;;;24.33;16.17;;;10.90;99.90;;;;;;6190395;22;20081;-89
2024/03/10 10:17:22;;;;;;;27.52;16.40;;;10.90;99.90;;;;;;6213640;22;20012;-89
2024/03/10 10:19:50;;;;;;;25.38;16.52;;;11.20;99.90;;;;;;6176195;22;20043;-88
2024/03/10 10:22:20;;;;;;;25.02;16.90;;;11.20;99.90;;;;;;6200921;22;20065;-88
2024/03/10 10:25:00;;;;;;;23.33;16.15;;;11.50;99.90;;;;;;6216091;22;20337;-87
2024/03/10 10:27:33;;;;;;;21.65;13.18;;;11.70;99.90;;;;;;6190978;22;20461;-88
2024/03/10 10:29:58;;;;;;;22.95;15.45;;;11.90;99.90;;;;;;6215662;22;20055;-88
2024/03/10 10:32:33;;;;;;;20.30;14.55;;;12.30;99.90;;;;;;6189674;22;20016;-86
2024/03/10 10:35:00;;;;;;;23.98;16.88;;;12.30;99.90;;;;;;6217628;22;20053;-88
2024/03/10 10:37:34;;;;;;;21.75;15.82;;;12.10;99.90;;;;;;6215708;22;20383;-87
2024/03/10 10:39:59;;;;;;;25.45;15.65;;;12.30;99.90;;;;;;6191209;23;20788;-86
2024/03/10 10:42:26;;;;;;;23.17;16.38;;;12.50;99.90;;;;;;6177090;22;20456;-85
2024/03/10 10:44:52;;;;;;;25.45;17.45;;;12.40;99.90;;;;;;6208402;23;20392;-86
2024/03/10 10:47:18;;;;;;;20.67;15.15;;;12.40;99.90;;;;;;6183032;23;20028;-88
2024/03/10 10:49:44;;;;;;;21.50;16.45;;;12.50;99.90;;;;;;6181849;23;20013;-85
2024/03/10 10:52:11;;;;;;;22.67;17.73;;;12.60;99.90;;;;;;6198915;22;20061;-88
2024/03/10 10:54:38;;;;;;;24.67;16.85;;;12.40;99.90;;;;;;6182797;23;20009;-83
2024/03/10 10:57:08;;;;;;;23.85;16.83;;;12.30;99.90;;;;;;6211293;23;20016;-85
2024/03/10 10:59:34;;;;;;;23.85;15.32;;;12.50;99.90;;;;;;6209688;22;20319;-86
2024/03/10 11:02:06;;;;;;;23.45;17.90;;;12.50;99.90;;;;;;6221061;22;20011;-88
2024/03/10 11:04:35;;;;;;;23.05;16.45;;;12.40;99.90;;;;;;6246884;22;20445;-88
2024/03/10 11:07:05;;;;;;;24.20;16.73;;;12.60;99.90;;;;;;6234732;22;20041;-89
2024/03/10 11:09:36;;;;;;;24.25;16.42;;;12.80;99.90;;;;;;6197548;22;20535;-88
2024/03/10 11:12:21;;;;;;;22.40;16.83;;;13.00;99.90;;;;;;6241801;22;20032;-86
2024/03/10 11:14:47;;;;;;;23.40;16.55;;;13.00;99.90;;;;;;6175054;22;20461;-86
2024/03/10 11:17:16;;;;;;;26.98;19.15;;;13.00;99.90;;;;;;6211752;23;20457;-87
2024/03/10 11:19:50;;;;;;;27.67;17.13;;;13.10;99.90;;;;;;6214119;23;20020;-88
2024/03/10 11:22:24;;;;;;;26.05;18.33;;;13.20;99.90;;;;;;6239734;22;20531;-87
2024/03/10 11:25:16;;;;;;;25.90;17.10;;;13.30;99.90;;;;;;6191019;23;20027;-86
2024/03/10 11:27:45;;;;;;;27.80;18.38;;;13.30;99.90;;;;;;6216177;22;20025;-87
2024/03/10 11:30:44;;;;;;;27.25;18.52;;;13.50;99.90;;;;;;6189839;22;20011;-86
2024/03/10 11:33:12;;;;;;;28.20;18.30;;;13.40;99.90;;;;;;6214623;23;20020;-87
2024/03/10 11:35:38;;;;;;;26.55;18.58;;;13.60;99.90;;;;;;6206714;22;20016;-86
2024/03/10 11:38:04;;;;;;;26.80;19.30;;;13.50;99.90;;;;;;6208064;23;20016;-85
2024/03/10 11:40:30;;;;;;;30.35;19.63;;;13.50;99.90;;;;;;6183795;23;20016;-84
2024/03/10 11:43:01;;;;;;;27.77;18.50;;;13.60;99.90;;;;;;6203241;23;20084;-83
2024/03/10 11:45:29;;;;;;;25.42;18.33;;;13.70;99.90;;;;;;6184591;23;20015;-84
2024/03/10 11:47:55;;;;;;;27.70;19.88;;;13.90;99.90;;;;;;6185385;23;20020;-85
2024/03/10 11:50:23;;;;;;;27.70;20.50;;;14.00;99.90;;;;;;6203508;23;20012;-85
2024/03/10 11:52:48;;;;;;;25.30;19.40;;;14.00;99.90;;;;;;6176385;23;20182;-85
2024/03/10 11:55:18;;;;;;;25.80;18.48;;;14.00;99.90;;;;;;6214702;23;20450;-84
2024/03/10 11:57:44;;;;;;;28.02;19.13;;;14.10;99.90;;;;;;6211267;22;20074;-85
2024/03/10 12:00:14;;;;;;;29.00;20.50;;;14.10;99.90;;;;;;6235173;22;20011;-85
2024/03/10 12:02:40;;;;;;;26.45;19.30;;;14.30;99.90;;;;;;6190421;22;20011;-84
2024/03/10 12:05:11;;;;;;;28.67;20.75;;;14.40;99.90;;;;;;6212701;22;20004;-83
2024/03/10 12:07:37;;;;;;;30.17;21.25;;;14.50;99.90;;;;;;6240766;22;20015;-83
2024/03/10 12:10:08;;;;;;;28.08;20.75;;;14.70;99.90;;;;;;6239703;22;20007;-83
2024/03/10 12:12:35;;;;;;;28.00;20.10;;;14.70;99.90;;;;;;6189102;23;20446;-82
2024/03/10 12:15:00;;;;;;;27.23;19.75;;;14.90;99.90;;;;;;6186028;23;20004;-83
2024/03/10 12:17:26;;;;;;;30.40;20.10;;;15.00;99.90;;;;;;6234939;22;20030;-81
2024/03/10 12:19:52;;;;;;;26.60;19.67;;;15.10;99.90;;;;;;6212815;22;20319;-83
2024/03/10 12:22:18;;;;;;;26.73;18.40;;;15.30;99.90;;;;;;6213346;22;20004;-83
2024/03/10 12:24:44;;;;;;;27.42;20.77;;;15.30;99.90;;;;;;6239231;22;20020;-82
2024/03/10 12:27:09;;;;;;;26.23;19.75;;;15.40;99.90;;;;;;6238002;22;20007;-81
2024/03/10 12:29:48;;;;;;;28.15;19.55;;;15.50;99.90;;;;;;6213554;22;20019;-81
2024/03/10 12:32:14;;;;;;;25.73;18.58;;;15.60;99.90;;;;;;6237867;22;20007;-80
2024/03/10 12:34:40;;;;;;;24.65;17.20;;;15.70;99.90;;;;;;6183813;23;20062;-80
2024/03/10 12:37:05;;;;;;;27.42;20.52;;;15.70;99.90;;;;;;6186507;23;20057;-79
2024/03/10 12:39:31;;;;;;;27.77;20.17;;;15.80;99.90;;;;;;6192136;23;20493;-82
2024/03/10 12:41:57;;;;;;;27.95;21.27;;;15.70;99.90;;;;;;6210617;23;20091;-80
2024/03/10 12:44:23;;;;;;;29.17;20.05;;;15.90;99.90;;;;;;6236813;22;20449;-80
2024/03/10 12:46:48;;;;;;;27.73;21.05;;;15.80;99.90;;;;;;6214642;22;20015;-80
2024/03/10 12:49:14;;;;;;;27.00;19.13;;;16.00;99.90;;;;;;6236482;22;20011;-79
2024/03/10 12:51:40;;;;;;;28.10;20.75;;;16.10;99.90;;;;;;6185554;23;20024;-79
2024/03/10 12:54:06;;;;;;;26.95;19.90;;;16.10;99.90;;;;;;6208157;23;20077;-79
2024/03/10 12:56:32;;;;;;;28.98;21.50;;;16.00;99.90;;;;;;6176594;23;20018;-79